createdAt,value
2022-09-25T00:01:11.697Z,10.67
2022-09-25T00:04:14.857Z,9.63
2022-09-25T00:07:19.022Z,9.53
2022-09-25T00:10:21.886Z,10.70
2022-09-25T00:13:25.200Z,10.67
2022-09-25T00:16:30.732Z,8.93
2022-09-25T00:19:51.522Z,7.20
2022-09-25T00:22:56.461Z,7.77
2022-09-25T00:25:59.966Z,9.07
2022-09-25T00:29:03.162Z,7.90
2022-09-25T00:32:06.989Z,8.23
2022-09-25T00:35:10.508Z,6.87
2022-09-25T00:38:14.750Z,9.50
2022-09-25T00:41:19.156Z,7.63
2022-09-25T00:44:58.045Z,8.37
2022-09-25T00:48:03.220Z,8.23
2022-09-25T00:51:06.941Z,9.43
2022-09-25T00:54:15.975Z,7.90
2022-09-25T00:57:21.884Z,9.87
2022-09-25T01:00:24.828Z,9.03
2022-09-25T01:03:28.409Z,9.37
2022-09-25T01:06:32.610Z,8.00
2022-09-25T01:09:37.126Z,9.97
2022-09-25T01:12:43.390Z,9.03
2022-09-25T01:15:54.738Z,9.20
2022-09-25T01:19:06.314Z,9.23
2022-09-25T01:22:16.878Z,8.53
2022-09-25T01:25:35.246Z,8.90
2022-09-25T01:28:51.082Z,8.83
2022-09-25T01:32:03.176Z,8.13
2022-09-25T01:35:10.263Z,9.30
2022-09-25T01:38:24.489Z,8.43
2022-09-25T01:41:34.587Z,9.27
2022-09-25T01:44:44.783Z,9.23
2022-09-25T01:47:51.638Z,8.43
2022-09-25T01:50:59.432Z,8.37
2022-09-25T01:54:08.102Z,8.90
2022-09-25T01:57:16.582Z,7.83
2022-09-25T02:00:22.828Z,9.80
2022-09-25T02:03:32.310Z,8.67
2022-09-25T02:06:38.209Z,9.20
2022-09-25T02:09:45.851Z,8.07
2022-09-25T02:12:52.863Z,7.93
2022-09-25T02:15:59.414Z,8.23
2022-09-25T02:19:20.006Z,7.67
2022-09-25T02:22:25.650Z,6.70
2022-09-25T02:25:37.623Z,7.77
2022-09-25T02:28:40.495Z,8.03
2022-09-25T02:31:50.081Z,7.80
2022-09-25T02:34:53.867Z,9.37
2022-09-25T02:37:57.851Z,8.90
2022-09-25T02:41:07.330Z,8.93
2022-09-25T02:44:18.717Z,8.00
2022-09-25T02:47:33.059Z,7.83
2022-09-25T02:50:43.506Z,7.63
2022-09-25T02:53:53.325Z,8.30
2022-09-25T02:57:04.217Z,8.00
2022-09-25T03:00:09.996Z,8.97
2022-09-25T03:03:17.850Z,9.33
2022-09-25T03:06:21.797Z,9.17
2022-09-25T03:09:25.750Z,8.40
2022-09-25T03:12:28.584Z,9.33
2022-09-25T03:15:31.542Z,7.83
2022-09-25T03:18:35.890Z,8.70
2022-09-25T03:21:38.942Z,6.80
2022-09-25T03:24:41.911Z,7.23
2022-09-25T03:34:41.059Z,8.40
2022-09-25T03:37:43.866Z,8.30
2022-09-25T03:40:46.775Z,8.87
2022-09-25T03:43:51.979Z,9.43
2022-09-25T03:46:54.865Z,9.43
2022-09-25T03:49:59.029Z,8.93
2022-09-25T03:53:01.927Z,10.83
2022-09-25T03:56:08.034Z,9.97
2022-09-25T03:59:11.039Z,11.27
2022-09-25T04:02:13.938Z,9.40
2022-09-25T04:05:20.115Z,9.97
2022-09-25T04:08:23.128Z,9.43
2022-09-25T04:11:25.968Z,9.10
2022-09-25T04:14:28.912Z,9.40
2022-09-25T04:17:31.776Z,10.47
2022-09-25T04:20:37.557Z,11.27
2022-09-25T04:23:40.800Z,12.33
2022-09-25T04:26:43.686Z,10.33
2022-09-25T04:29:46.727Z,11.30
2022-09-25T04:33:06.995Z,12.00
2022-09-25T04:36:11.587Z,11.10
2022-09-25T04:39:20.025Z,10.90
2022-09-25T04:42:24.674Z,9.87
2022-09-25T04:45:28.182Z,10.87
2022-09-25T04:48:31.208Z,12.37
2022-09-25T04:51:35.438Z,11.57
2022-09-25T04:54:38.346Z,12.30
2022-09-25T04:57:57.707Z,11.77
2022-09-25T05:01:03.985Z,11.10
2022-09-25T05:04:08.869Z,12.57
2022-09-25T05:07:13.728Z,12.97
2022-09-25T05:10:17.083Z,13.27
2022-09-25T05:13:19.986Z,11.97
2022-09-25T05:16:22.881Z,12.87
2022-09-25T05:19:25.742Z,12.13
2022-09-25T05:22:29.951Z,10.30
2022-09-25T05:25:33.040Z,10.57
2022-09-25T05:28:35.972Z,11.13
2022-09-25T05:31:38.827Z,13.67
2022-09-25T05:34:41.723Z,13.77
2022-09-25T05:37:45.942Z,13.17
2022-09-25T05:40:48.865Z,11.33
2022-09-25T05:43:51.923Z,12.33
2022-09-25T05:46:56.485Z,12.97
2022-09-25T05:49:59.325Z,12.27
2022-09-25T05:53:05.289Z,10.80
2022-09-25T05:56:08.280Z,11.67
2022-09-25T05:59:11.130Z,12.83
2022-09-25T06:02:14.047Z,13.00
2022-09-25T06:05:16.996Z,9.87
2022-09-25T06:08:21.466Z,10.60
2022-09-25T06:11:24.386Z,12.23
2022-09-25T06:14:27.171Z,14.67
2022-09-25T06:17:30.020Z,11.13
2022-09-25T06:20:32.917Z,13.97
2022-09-25T06:23:37.175Z,14.20
2022-09-25T06:26:40.921Z,13.50
2022-09-25T06:29:43.741Z,13.37
2022-09-25T06:32:46.595Z,13.80
2022-09-25T06:35:50.123Z,12.80
2022-09-25T06:38:56.521Z,12.90
2022-09-25T06:41:59.365Z,13.10
2022-09-25T06:45:02.381Z,11.93
2022-09-25T06:48:07.157Z,12.53
2022-09-25T06:51:09.974Z,13.63
2022-09-25T06:54:14.471Z,13.17
2022-09-25T06:57:17.366Z,13.40
2022-09-25T07:00:20.368Z,12.67
2022-09-25T07:03:42.178Z,13.20
2022-09-25T07:06:45.091Z,13.80
2022-09-25T07:09:49.458Z,13.87
2022-09-25T07:12:52.304Z,13.10
2022-09-25T07:15:56.330Z,13.50
2022-09-25T07:19:01.116Z,12.73
2022-09-25T07:22:04.968Z,14.17
2022-09-25T07:25:10.839Z,13.57
2022-09-25T07:28:14.917Z,14.30
2022-09-25T07:31:19.580Z,14.10
2022-09-25T07:34:22.655Z,15.03
2022-09-25T07:37:25.756Z,13.80
2022-09-25T07:40:31.904Z,14.00
2022-09-25T07:43:34.922Z,14.33
2022-09-25T07:46:42.890Z,15.00
2022-09-25T07:49:45.918Z,14.47
2022-09-25T07:52:48.743Z,11.97
2022-09-25T07:55:52.929Z,13.33
2022-09-25T07:58:55.756Z,14.00
2022-09-25T08:01:59.171Z,14.40
2022-09-25T08:05:02.299Z,14.17
2022-09-25T08:08:05.202Z,13.07
2022-09-25T08:11:11.443Z,14.43
2022-09-25T08:14:15.787Z,14.33
2022-09-25T08:17:18.791Z,13.10
2022-09-25T08:20:21.693Z,14.20
2022-09-25T08:23:24.631Z,15.07
2022-09-25T08:26:29.301Z,13.33
2022-09-25T08:29:32.210Z,12.03
2022-09-25T08:32:36.397Z,14.00
2022-09-25T08:35:41.109Z,12.80
2022-09-25T08:38:43.986Z,13.90
2022-09-25T08:41:51.256Z,13.70
2022-09-25T08:45:21.100Z,13.63
2022-09-25T08:48:44.989Z,13.47
2022-09-25T08:51:51.413Z,13.87
2022-09-25T08:54:54.535Z,15.17
2022-09-25T08:57:59.552Z,14.10
2022-09-25T09:01:07.101Z,13.13
2022-09-25T09:04:19.084Z,13.70
2022-09-25T09:07:28.306Z,13.10
2022-09-25T09:10:36.785Z,13.23
2022-09-25T09:13:47.083Z,13.80
2022-09-25T09:16:55.707Z,12.80
2022-09-25T09:20:03.572Z,19.50
2022-09-25T09:23:11.079Z,13.37
2022-09-25T09:26:22.286Z,13.87
2022-09-25T09:29:54.574Z,14.63
2022-09-25T09:33:29.439Z,13.37
2022-09-25T09:36:47.550Z,14.87
2022-09-25T09:40:00.776Z,15.37
2022-09-25T09:43:12.362Z,15.27
2022-09-25T09:46:25.371Z,15.90
2022-09-25T09:49:35.272Z,12.73
2022-09-25T09:52:41.005Z,15.13
2022-09-25T09:55:47.114Z,14.87
2022-09-25T09:58:52.745Z,15.17
2022-09-25T10:02:02.767Z,14.00
2022-09-25T10:05:09.600Z,14.40
2022-09-25T10:08:12.935Z,13.90
2022-09-25T10:11:18.477Z,13.40
2022-09-25T10:14:23.503Z,14.93
2022-09-25T10:17:30.932Z,13.97
2022-09-25T10:20:41.388Z,14.37
2022-09-25T10:23:50.421Z,13.90
2022-09-25T10:26:53.309Z,14.00
2022-09-25T10:30:20.426Z,13.53
2022-09-25T10:33:26.315Z,11.47
2022-09-25T10:36:35.446Z,13.40
2022-09-25T10:39:44.544Z,12.20
2022-09-25T10:42:48.287Z,14.87
2022-09-25T10:45:54.216Z,12.80
2022-09-25T10:49:30.905Z,12.63
2022-09-25T10:52:49.840Z,12.17
2022-09-25T10:55:54.706Z,13.13
2022-09-25T10:59:01.833Z,13.17
2022-09-25T11:02:14.905Z,13.40
2022-09-25T11:05:22.144Z,12.77
2022-09-25T11:08:28.975Z,12.53
2022-09-25T11:11:32.570Z,13.40
2022-09-25T11:14:37.519Z,12.90
2022-09-25T11:17:42.519Z,11.80
2022-09-25T11:21:02.909Z,12.53
2022-09-25T11:24:14.722Z,11.07
2022-09-25T11:27:22.074Z,12.27
2022-09-25T11:30:25.142Z,12.03
2022-09-25T11:33:42.219Z,11.87
2022-09-25T11:36:48.802Z,12.27
2022-09-25T11:40:15.720Z,11.17
2022-09-25T11:43:27.045Z,11.90
2022-09-25T11:46:39.411Z,12.47
2022-09-25T11:49:43.304Z,11.63
2022-09-25T11:52:59.768Z,10.90
2022-09-25T11:56:13.694Z,10.50
2022-09-25T11:59:28.705Z,10.57
2022-09-25T12:02:50.322Z,11.77
2022-09-25T12:06:11.618Z,10.87
2022-09-25T12:09:31.887Z,11.30
2022-09-25T12:12:41.504Z,12.03
2022-09-25T12:15:57.264Z,11.23
2022-09-25T12:19:10.757Z,9.80
2022-09-25T12:22:23.711Z,10.77
2022-09-25T12:25:41.753Z,9.53
2022-09-25T12:29:06.091Z,9.43
2022-09-25T12:32:20.508Z,9.43
2022-09-25T12:35:37.082Z,8.60
2022-09-25T12:38:45.163Z,9.40
2022-09-25T12:41:54.300Z,9.17
2022-09-25T12:45:01.418Z,8.10
2022-09-25T12:48:12.960Z,8.60
2022-09-25T12:51:21.444Z,8.53
2022-09-25T12:54:32.234Z,9.33
2022-09-25T12:57:42.435Z,9.13
2022-09-25T13:00:48.623Z,8.00
2022-09-25T13:04:06.007Z,7.07
2022-09-25T13:07:16.501Z,7.17
2022-09-25T13:10:28.565Z,7.27
2022-09-25T13:13:38.662Z,8.07
2022-09-25T13:16:41.887Z,8.13
2022-09-25T13:19:44.942Z,7.60
2022-09-25T13:22:48.136Z,8.23
2022-09-25T13:25:59.689Z,8.40
2022-09-25T13:29:08.279Z,6.73
2022-09-25T13:32:17.233Z,7.53
2022-09-25T13:35:22.750Z,8.87
2022-09-25T13:38:39.542Z,9.03
2022-09-25T13:41:55.179Z,7.10
2022-09-25T13:45:07.736Z,7.67
2022-09-25T13:48:12.634Z,7.13
2022-09-25T13:51:35.719Z,6.90
2022-09-25T13:54:38.635Z,7.63
2022-09-25T13:58:03.094Z,7.93
2022-09-25T14:01:19.778Z,7.27
2022-09-25T14:04:38.830Z,8.47
2022-09-25T14:07:42.969Z,8.10
2022-09-25T14:10:48.158Z,7.63
2022-09-25T14:13:56.702Z,9.33
2022-09-25T14:17:01.668Z,9.03
2022-09-25T14:20:11.371Z,7.93
2022-09-25T14:23:17.455Z,8.50
2022-09-25T14:26:22.783Z,8.00
2022-09-25T14:29:27.646Z,9.00
2022-09-25T14:32:55.276Z,8.77
2022-09-25T14:36:10.623Z,8.63
2022-09-25T14:39:30.204Z,8.93
2022-09-25T14:42:59.303Z,8.70
2022-09-25T14:46:06.502Z,9.00
2022-09-25T14:49:27.670Z,8.10
2022-09-25T14:52:36.442Z,10.67
2022-09-25T14:55:46.288Z,10.73
2022-09-25T14:58:52.904Z,9.23
2022-09-25T15:01:55.894Z,11.17
2022-09-25T15:05:01.557Z,9.57
2022-09-25T15:08:21.328Z,9.50
2022-09-25T15:11:29.615Z,10.23
2022-09-25T15:14:32.535Z,10.50
2022-09-25T15:17:44.126Z,10.07
2022-09-25T15:20:49.541Z,9.80
2022-09-25T15:23:53.347Z,9.10
2022-09-25T15:27:03.432Z,9.47
2022-09-25T15:30:07.650Z,9.63
2022-09-25T15:33:22.197Z,8.53
2022-09-25T15:36:26.468Z,9.83
2022-09-25T15:39:29.468Z,9.63
2022-09-25T15:42:32.419Z,9.97
2022-09-25T15:45:42.203Z,10.20
2022-09-25T15:48:53.381Z,9.60
2022-09-25T15:52:00.995Z,8.17
2022-09-25T15:55:07.911Z,8.80
2022-09-25T15:58:15.365Z,8.90
2022-09-25T16:01:40.390Z,10.03
2022-09-25T16:04:49.558Z,10.40
2022-09-25T16:07:56.119Z,10.07
2022-09-25T16:11:14.415Z,9.60
2022-09-25T16:14:29.241Z,10.00
2022-09-25T16:17:34.404Z,10.23
2022-09-25T16:20:39.454Z,9.90
2022-09-25T16:23:44.009Z,8.90
2022-09-25T16:26:48.690Z,8.80
2022-09-25T16:29:52.010Z,9.63
2022-09-25T16:32:56.681Z,8.20
2022-09-25T16:36:18.348Z,8.83
2022-09-25T16:39:28.876Z,9.10
2022-09-25T16:42:35.639Z,8.30
2022-09-25T16:45:57.749Z,8.10
2022-09-25T16:49:02.402Z,8.73
2022-09-25T16:52:07.647Z,8.57
2022-09-25T16:55:19.639Z,9.00
2022-09-25T16:58:23.395Z,9.07
2022-09-25T17:01:29.179Z,8.33
2022-09-25T17:04:32.730Z,8.80
2022-09-25T17:07:35.528Z,8.07
2022-09-25T17:10:41.713Z,8.33
2022-09-25T17:13:45.184Z,8.80
2022-09-25T17:16:47.982Z,7.90
2022-09-25T17:19:51.458Z,8.43
2022-09-25T17:22:55.497Z,8.20
2022-09-25T17:26:04.497Z,7.93
2022-09-25T17:29:07.797Z,8.67
2022-09-25T17:32:17.512Z,8.27
2022-09-25T17:35:33.329Z,8.07
2022-09-25T17:38:36.401Z,7.63
2022-09-25T17:41:41.222Z,7.70
2022-09-25T17:44:44.064Z,7.57
2022-09-25T17:47:47.147Z,8.57
2022-09-25T17:50:50.229Z,7.93
2022-09-25T17:53:53.814Z,8.10
2022-09-25T17:56:58.335Z,7.47
2022-09-25T18:00:01.420Z,8.13
2022-09-25T18:03:04.323Z,7.73
2022-09-25T18:06:07.419Z,7.63
2022-09-25T18:09:10.365Z,8.17
2022-09-25T18:12:14.583Z,7.97
2022-09-25T18:15:17.800Z,8.10
2022-09-25T18:18:20.962Z,8.47
2022-09-25T18:21:41.477Z,9.13
2022-09-25T18:24:45.011Z,8.53
2022-09-25T18:27:49.345Z,8.73
2022-09-25T18:30:52.452Z,8.27
2022-09-25T18:33:55.697Z,8.67
2022-09-25T18:36:58.604Z,7.47
2022-09-25T18:40:01.801Z,7.57
2022-09-25T18:43:06.196Z,8.47
2022-09-25T18:46:10.558Z,7.57
2022-09-25T18:49:13.549Z,7.37
2022-09-25T18:52:16.644Z,7.70
2022-09-25T18:55:19.634Z,6.90
2022-09-25T18:58:23.801Z,7.73
2022-09-25T19:01:26.925Z,6.63
2022-09-25T19:04:29.880Z,7.43
2022-09-25T19:07:33.114Z,8.40
2022-09-25T19:10:36.012Z,8.27
2022-09-25T19:13:40.862Z,8.30
2022-09-25T19:16:44.150Z,7.87
2022-09-25T19:19:47.011Z,8.53
2022-09-25T19:22:49.819Z,8.07
2022-09-25T19:25:56.424Z,8.03
2022-09-25T19:29:01.521Z,8.40
2022-09-25T19:32:05.293Z,8.90
2022-09-25T19:35:11.117Z,6.53
2022-09-25T19:38:13.965Z,8.17
2022-09-25T19:41:19.017Z,8.47
2022-09-25T19:44:24.173Z,9.07
2022-09-25T19:47:27.066Z,8.53
2022-09-25T19:50:29.881Z,8.60
2022-09-25T19:53:32.857Z,8.83
2022-09-25T19:56:40.741Z,8.27
2022-09-25T19:59:45.194Z,7.87
2022-09-25T20:02:48.502Z,7.87
2022-09-25T20:05:51.656Z,8.07
2022-09-25T20:08:57.817Z,8.23
2022-09-25T20:12:00.706Z,8.83
2022-09-25T20:15:05.276Z,10.00
2022-09-25T20:18:08.305Z,10.67
2022-09-25T20:21:13.825Z,11.73
2022-09-25T20:24:18.056Z,11.57
2022-09-25T20:27:23.304Z,11.33
2022-09-25T20:30:29.226Z,10.07
2022-09-25T20:33:34.660Z,9.37
2022-09-25T20:36:39.113Z,9.40
2022-09-25T20:39:42.041Z,8.63
2022-09-25T20:42:44.966Z,8.70
2022-09-25T20:45:58.426Z,7.80
2022-09-25T20:49:02.044Z,7.97
2022-09-25T20:52:04.892Z,7.90
2022-09-25T20:55:08.350Z,7.70
2022-09-25T20:58:11.310Z,7.20
2022-09-25T21:01:17.271Z,7.83
2022-09-25T21:04:20.201Z,7.47
2022-09-25T21:07:25.317Z,7.50
2022-09-25T21:10:28.164Z,7.73
2022-09-25T21:13:31.899Z,8.23
2022-09-25T21:16:36.154Z,7.67
2022-09-25T21:19:39.064Z,7.73
2022-09-25T21:22:42.248Z,7.93
2022-09-25T21:25:45.343Z,8.13
2022-09-25T21:28:50.984Z,6.90
2022-09-25T21:31:55.357Z,8.17
2022-09-25T21:34:58.228Z,7.43
2022-09-25T21:38:01.077Z,8.33
2022-09-25T21:41:06.051Z,7.70
2022-09-25T21:44:13.374Z,7.87
2022-09-25T21:47:17.911Z,8.43
2022-09-25T21:50:20.791Z,8.10
2022-09-25T21:53:24.591Z,7.90
2022-09-25T21:56:29.029Z,7.67
2022-09-25T21:59:31.982Z,8.07
2022-09-25T22:02:36.239Z,8.13
2022-09-25T22:05:41.906Z,7.70
2022-09-25T22:08:47.353Z,8.07
2022-09-25T22:11:51.648Z,8.27
2022-09-25T22:14:54.509Z,7.40
2022-09-25T22:17:58.810Z,7.73
2022-09-25T22:21:01.618Z,8.03
2022-09-25T22:24:05.602Z,8.27
2022-09-25T22:27:08.481Z,8.27
2022-09-25T22:30:12.417Z,7.50
2022-09-25T22:33:16.707Z,7.43
2022-09-25T22:36:19.505Z,7.50
2022-09-25T22:39:22.499Z,8.10
2022-09-25T22:42:25.287Z,7.63
2022-09-25T22:45:28.112Z,7.13
2022-09-25T22:48:32.674Z,7.70
2022-09-25T22:51:35.577Z,7.30
2022-09-25T22:54:38.412Z,7.33
2022-09-25T22:57:41.239Z,7.20
2022-09-25T23:00:44.598Z,6.60
2022-09-25T23:03:48.906Z,7.33
2022-09-25T23:06:52.816Z,6.83
2022-09-25T23:09:55.671Z,7.53
2022-09-25T23:12:58.562Z,6.83
2022-09-25T23:16:05.698Z,5.90
2022-09-25T23:19:10.520Z,6.30
2022-09-25T23:22:13.324Z,6.50
2022-09-25T23:25:16.200Z,6.43
2022-09-25T23:28:19.023Z,6.27
2022-09-25T23:31:22.779Z,6.47
2022-09-25T23:34:27.035Z,6.07
2022-09-25T23:37:30.134Z,6.40
2022-09-25T23:40:33.178Z,6.10
2022-09-25T23:43:35.986Z,5.83
2022-09-25T23:46:40.819Z,5.97
2022-09-25T23:49:45.025Z,9.47
2022-09-25T23:52:47.897Z,6.20
2022-09-25T23:55:51.047Z,6.03
2022-09-25T23:58:56.081Z,5.10
